Time;durP1;ratioP1;P1;durP2;ratioP2;P2;SDS_P1;SDS_P2;PMS_P1;PMS_P2;Temp;Humidity;BMP_temperature;BMP_pressure;BME280_temperature;BME280_humidity;BME280_pressure;Samples;Min_cycle;Max_cycle;Signal;HPM_P1;HPM_P2
2022/05/23 00:06:29;;;;;;;;;;;;;;;16.7;49.16504;100903;;;;-80
2022/05/23 00:11:22;;;;;;;;;;;;;;;16.66;49.02441;100894;;;;-80
2022/05/23 00:16:40;;;;;;;;;;;;;;;16.61;49.17773;100885.8;;;;-80
2022/05/23 00:21:55;;;;;;;;;;;;;;;16.54;49.40723;100876.6;;;;-81
2022/05/23 00:26:51;;;;;;;;;;;;;;;16.47;49.60254;100870.4;;;;-82
2022/05/23 00:38:26;;;;;;;;;;;;;;;16.31;49.78906;100853.9;;;;-81
2022/05/23 00:43:23;;;;;;;;;;;;;;;16.23;49.67773;100845.1;;;;-81
2022/05/23 00:43:44;;;;;;;3.6;1.4;;;;;;;;;;;;;-80
2022/05/23 00:46:51;;;;;;;;;;;;;;;16.2;49.90137;100834.3;;;;-80
2022/05/23 00:51:45;;;;;;;;;;;;;;;16.13;49.85938;100828.1;;;;-81
2022/05/23 00:56:48;;;;;;;;;;;;;;;16.05;50.01953;100821.5;;;;-82
2022/05/23 01:02:27;;;;;;;;;;;;;;;15.96;50.07715;100811;;;;-83
2022/05/23 01:11:55;;;;;;;;;;;;;;;15.81;50.07129;100809.6;;;;-80
2022/05/23 01:13:48;;;;;;;4;1.4;;;;;;;;;;;;;-80
2022/05/23 01:19:09;;;;;;;;;;;;;;;15.72;50.09473;100798.3;;;;-80
2022/05/23 01:24:13;;;;;;;;;;;;;;;15.68;50.41797;100796.2;;;;-81
2022/05/23 01:29:13;;;;;;;;;;;;;;;15.63;50.25391;100786.2;;;;-79
2022/05/23 01:37:16;;;;;;;;;;;;;;;15.58;50.46387;100776.4;;;;-80
2022/05/23 01:42:18;;;;;;;;;;;;;;;15.52;50.41113;100778.8;;;;-82
2022/05/23 01:43:53;;;;;;;4.5;1.5;;;;;;;;;;;;;-82
2022/05/23 01:49:04;;;;;;;;;;;;;;;15.46;50.44922;100784.9;;;;-81
2022/05/23 01:57:33;;;;;;;;;;;;;;;15.35;50.75293;100783.5;;;;-80
2022/05/23 02:02:27;;;;;;;;;;;;;;;15.29;51.23047;100781.5;;;;-81
2022/05/23 02:07:28;;;;;;;;;;;;;;;15.24;51.01074;100772.6;;;;-81
2022/05/23 02:12:31;;;;;;;;;;;;;;;15.19;51.30957;100775.3;;;;-81
2022/05/23 02:14:01;;;;;;;3.7;1.5;;;;;;;;;;;;;-80
2022/05/23 02:17:38;;;;;;;;;;;;;;;15.15;50.99023;100768.3;;;;-80
2022/05/23 02:22:33;;;;;;;;;;;;;;;15.11;51.05078;100757.9;;;;-81
2022/05/23 02:28:32;;;;;;;;;;;;;;;15.07;50.92383;100751;;;;-82
2022/05/23 02:33:37;;;;;;;;;;;;;;;15.02;51.03027;100741.8;;;;-81
2022/05/23 02:38:29;;;;;;;;;;;;;;;14.99;51.16309;100743.5;;;;-81
2022/05/23 02:44:07;;;;;;;3.9;1.6;;;;;;;;;;;;;-80
2022/05/23 02:44:27;;;;;;;;;;;;;;;14.94;51.16797;100743;;;;-83
2022/05/23 02:48:53;;;;;;;;;;;;;;;14.91;51.45703;100736.7;;;;-80
2022/05/23 02:53:58;;;;;;;;;;;;;;;14.87;52.29785;100737.9;;;;-80
2022/05/23 02:58:38;;;;;;;;;;;;;;;14.84;52.06836;100728.5;;;;-81
2022/05/23 03:03:49;;;;;;;;;;;;;;;14.84;52.03516;100721.2;;;;-81
2022/05/23 03:08:40;;;;;;;;;;;;;;;14.81;51.85156;100709.3;;;;-81
2022/05/23 03:13:58;;;;;;;4.1;1.6;;;;;;;;;;;;;-81
2022/05/23 03:14:29;;;;;;;;;;;;;;;14.79;52.08496;100701.7;;;;-84
2022/05/23 03:19:15;;;;;;;;;;;;;;;14.8;52.14258;100692.2;;;;-81
2022/05/23 03:29:42;;;;;;;;;;;;;;;14.8;51.87305;100671.2;;;;-84
2022/05/23 03:34:42;;;;;;;;;;;;;;;14.83;51.91992;100657;;;;-83
2022/05/23 03:39:45;;;;;;;;;;;;;;;14.84;52.0127;100641.7;;;;-83
2022/05/23 03:43:55;;;;;;;3.9;1.8;;;;;;;;;;;;;-83
2022/05/23 03:44:07;;;;;;;;;;;;;;;14.85;51.95703;100627.2;;;;-83
2022/05/23 03:49:07;;;;;;;;;;;;;;;14.87;52.07324;100618.9;;;;-83
2022/05/23 03:54:09;;;;;;;;;;;;;;;14.89;52.05273;100607.1;;;;-83
2022/05/23 03:58:50;;;;;;;;;;;;;;;14.92;51.94238;100600;;;;-82
2022/05/23 04:08:48;;;;;;;;;;;;;;;14.94;52.06934;100580.1;;;;-81
2022/05/23 04:14:30;;;;;;;3.8;1.8;;;;;;;;;;;;;-82
2022/05/23 04:18:55;;;;;;;;;;;;;;;14.97;51.44238;100569.9;;;;-82
2022/05/23 04:23:44;;;;;;;;;;;;;;;14.99;51.52344;100555.8;;;;-81
2022/05/23 04:29:44;;;;;;;;;;;;;;;15.03;51.57129;100544.2;;;;-81
2022/05/23 04:39:43;;;;;;;;;;;;;;;15.09;51.49023;100554.1;;;;-81
2022/05/23 04:43:19;;;;;;;;;;;;;;;15.12;52.06738;100555.5;;;;-85
2022/05/23 04:43:57;;;;;;;3.3;2;;;;;;;;;;;;;-84
2022/05/23 04:53:20;;;;;;;;;;;;;;;15.3;52.17871;100547.3;;;;-84
2022/05/23 04:59:25;;;;;;;;;;;;;;;15.41;52.04492;100541.1;;;;-82
2022/05/23 05:04:27;;;;;;;;;;;;;;;15.49;51.60352;100535;;;;-82
2022/05/23 05:09:30;;;;;;;;;;;;;;;15.55;51.64453;100523.6;;;;-79
2022/05/23 05:14:39;;;;;;;;;;;;;;;15.64;51.58789;100507.1;;;;-81
2022/05/23 05:19:21;;;;;;;;;;;;;;;15.74;51.3623;100496.5;;;;-82
2022/05/23 05:24:28;;;;;;;;;;;;;;;15.96;51.33105;100498.8;;;;-82
2022/05/23 05:28:59;;;;;;;;;;;;;;;16.34;50.68457;100500.3;;;;-85
2022/05/23 05:34:04;;;;;;;;;;;;;;;16.89;50.03516;100492;;;;-83
2022/05/23 05:39:08;;;;;;;;;;;;;;;17.3;49.49121;100490.1;;;;-84
2022/05/23 05:44:11;;;;;;;4.6;1.8;;;;;;;;;;;;;-81
2022/05/23 05:58:42;;;;;;;;;;;;;;;18.75;48.61914;100477.1;;;;-83
2022/05/23 06:03:40;;;;;;;;;;;;;;;18.91;48.30566;100468;;;;-82
2022/05/23 06:14:14;;;;;;;5.7;2.4;;;;;;;;;;;;;-81
2022/05/23 06:15:35;;;;;;;;;;;;;;;19.01;48.68164;100455.1;;;;-81
2022/05/23 06:20:41;;;;;;;;;;;;;;;19.2;48.45117;100446.9;;;;-80
2022/05/23 06:26:54;;;;;;;;;;;;;;;19.45;48.18164;100442.6;;;;-81
2022/05/23 06:31:52;;;;;;;;;;;;;;;19.89;47.7168;100437.4;;;;-83
2022/05/23 06:36:54;;;;;;;;;;;;;;;20.28;47.0957;100434.3;;;;-83
2022/05/23 06:39:55;;;;;;;;;;;;;;;20.43;46.86035;100432.1;;;;-80
2022/05/23 06:44:13;;;;;;;4.2;2.5;;;;;;;;;;;;;-80
2022/05/23 06:45:02;;;;;;;;;;;;;;;20.54;46.63184;100420.9;;;;-81
2022/05/23 06:50:03;;;;;;;;;;;;;;;20.54;46.67773;100414;;;;-81
2022/05/23 06:55:23;;;;;;;;;;;;;;;20.48;47.00293;100402;;;;-81
2022/05/23 07:00:24;;;;;;;;;;;;;;;20.45;47.22852;100397.7;;;;-81
2022/05/23 07:14:10;;;;;;;7.1;3.1;;;;;;;;;;;;;-83
2022/05/23 07:15:05;;;;;;;;;;;;;;;20.45;47.44531;100379.5;;;;-84
2022/05/23 07:20:06;;;;;;;;;;;;;;;20.51;47.67969;100381;;;;-82
2022/05/23 07:26:16;;;;;;;;;;;;;;;20.57;47.8125;100381.1;;;;-81
2022/05/23 07:31:09;;;;;;;;;;;;;;;20.64;47.65918;100378.2;;;;-81
2022/05/23 07:36:10;;;;;;;;;;;;;;;20.68;47.60742;100372.8;;;;-81
2022/05/23 07:41:58;;;;;;;;;;;;;;;20.8;47.5957;100362.9;;;;-83
2022/05/23 07:44:12;;;;;;;5.8;3.2;;;;;;;;;;;;;-82
2022/05/23 07:46:58;;;;;;;;;;;;;;;21.1;47.68652;100352.7;;;;-82
2022/05/23 07:52:02;;;;;;;;;;;;;;;21.59;46.95996;100348.5;;;;-84
2022/05/23 08:01:20;;;;;;;;;;;;;;;22.15;45.69727;100338.5;;;;-79
2022/05/23 08:06:18;;;;;;;;;;;;;;;22.26;45.3877;100330.7;;;;-81
2022/05/23 08:10:52;;;;;;;;;;;;;;;22.33;45.33789;100316.8;;;;-81
2022/05/23 08:14:24;;;;;;;5.6;2.9;;;;;;;;;;;;;-80
2022/05/23 08:15:51;;;;;;;;;;;;;;;22.5;45.05566;100317.9;;;;-81
2022/05/23 08:20:49;;;;;;;;;;;;;;;22.69;44.82324;100314.2;;;;-80
2022/05/23 08:26:17;;;;;;;;;;;;;;;22.92;44.63867;100315.7;;;;-82
2022/05/23 08:31:15;;;;;;;;;;;;;;;23.09;44.55176;100315.7;;;;-82
2022/05/23 08:36:15;;;;;;;;;;;;;;;23.2;44.5625;100307.2;;;;-83
2022/05/23 08:42:45;;;;;;;;;;;;;;;23.26;44.13184;100296.7;;;;-82
2022/05/23 08:44:26;;;;;;;6.5;3.3;;;;;;;;;;;;;-80
2022/05/23 08:47:49;;;;;;;;;;;;;;;23.27;44.10938;100297.2;;;;-81
2022/05/23 08:52:38;;;;;;;;;;;;;;;23.31;44.45898;100300.4;;;;-81
2022/05/23 08:57:47;;;;;;;;;;;;;;;23.35;44.71582;100300;;;;-83
2022/05/23 09:02:41;;;;;;;;;;;;;;;23.4;44.8125;100304.2;;;;-81
2022/05/23 09:07:54;;;;;;;;;;;;;;;23.5;44.93945;100301.1;;;;-83
2022/05/23 09:13:12;;;;;;;;;;;;;;;23.78;44.95605;100287.8;;;;-80
2022/05/23 09:14:23;;;;;;;8.9;4.7;;;;;;;;;;;;;-82
2022/05/23 09:18:09;;;;;;;;;;;;;;;24.08;44.53613;100281.3;;;;-82
2022/05/23 09:23:19;;;;;;;;;;;;;;;24.34;44.13379;100259.5;;;;-82
2022/05/23 09:27:11;;;;;;;;;;;;;;;24.54;43.7041;100256;;;;-80
2022/05/23 09:32:21;;;;;;;;;;;;;;;24.84;43.28125;100248.5;;;;-83
2022/05/23 09:37:04;;;;;;;;;;;;;;;25.22;43.35352;100247.3;;;;-80
2022/05/23 09:52:32;;;;;;;;;;;;;;;26.28;42.28418;100214.4;;;;-80
2022/05/23 09:58:25;;;;;;;;;;;;;;;26.78;41.22754;100203.2;;;;-82
2022/05/23 10:03:23;;;;;;;;;;;;;;;27.11;40.46875;100192.8;;;;-81
2022/05/23 10:08:36;;;;;;;;;;;;;;;27.45;40.14941;100181.5;;;;-80
2022/05/23 10:12:30;;;;;;;;;;;;;;;27.69;39.72852;100179.8;;;;-81
2022/05/23 10:14:41;;;;;;;11.7;5.4;;;;;;;;;;;;;-80
2022/05/23 10:17:37;;;;;;;;;;;;;;;27.84;39.61426;100174.8;;;;-83
2022/05/23 10:22:28;;;;;;;;;;;;;;;27.97;39.49609;100167.6;;;;-82
2022/05/23 10:27:23;;;;;;;;;;;;;;;27.97;39.59082;100157.7;;;;-81
2022/05/23 10:32:19;;;;;;;;;;;;;;;27.98;39.21875;100160.1;;;;-82
2022/05/23 10:37:20;;;;;;;;;;;;;;;28.04;39.09473;100152.8;;;;-81
2022/05/23 10:43:46;;;;;;;;;;;;;;;28.09;39.62305;100135.8;;;;-84
2022/05/23 10:44:39;;;;;;;7.9;5;;;;;;;;;;;;;-84
2022/05/23 10:48:50;;;;;;;;;;;;;;;28.05;39.95801;100133.1;;;;-84
2022/05/23 10:53:49;;;;;;;;;;;;;;;27.97;40.23047;100125.2;;;;-84
2022/05/23 11:00:06;;;;;;;;;;;;;;;27.89;40.49121;100120.1;;;;-82
2022/05/23 11:05:09;;;;;;;;;;;;;;;27.83;41.38184;100095.8;;;;-80
2022/05/23 11:10:06;;;;;;;;;;;;;;;27.82;41.67285;100090.2;;;;-81
2022/05/23 11:13:37;;;;;;;;;;;;;;;27.81;41.82324;100083.2;;;;-79
2022/05/23 11:14:45;;;;;;;6;3.4;;;;;;;;;;;;;-81
2022/05/23 11:18:30;;;;;;;;;;;;;;;27.8;41.6709;100084.5;;;;-81
2022/05/23 11:23:34;;;;;;;;;;;;;;;27.73;40.86133;100090.5;;;;-80
2022/05/23 11:38:28;;;;;;;;;;;;;;;27.19;42.03418;100051.8;;;;-82
2022/05/23 11:45:56;;;;;;;8;4;;;;;;;;;;;;;-81
2022/05/23 11:50:43;;;;;;;;;;;;;;;27;41.91016;100043.8;;;;-80
2022/05/23 11:55:36;;;;;;;;;;;;;;;26.92;41.98438;100042.2;;;;-84
2022/05/23 12:00:34;;;;;;;;;;;;;;;26.88;41.96973;100035.5;;;;-80
2022/05/23 12:05:38;;;;;;;;;;;;;;;26.83;42.02246;100021;;;;-81
2022/05/23 12:10:43;;;;;;;;;;;;;;;26.78;41.91309;100012.6;;;;-81
2022/05/23 12:15:01;;;;;;;6.1;3.7;;;;;;;;;;;;;-81
2022/05/23 12:15:16;;;;;;;;;;;;;;;26.78;42.06348;100008.9;;;;-83
2022/05/23 12:20:26;;;;;;;;;;;;;;;26.88;42.03906;99992.8;;;;-82
2022/05/23 12:25:28;;;;;;;;;;;;;;;27.07;41.91699;99978.63;;;;-83
2022/05/23 12:30:41;;;;;;;;;;;;;;;27.27;41.81934;99963.75;;;;-80
2022/05/23 12:35:33;;;;;;;;;;;;;;;27.39;41.91309;99957.25;;;;-80
2022/05/23 12:40:32;;;;;;;;;;;;;;;27.5;41.73633;99949.26;;;;-81
2022/05/23 12:44:45;;;;;;;;;;;;;;;;;;;;;
2022/05/23 12:49:39;;;;;;;;;;;;;;;27.77;41.17969;99938.67;;;;-79
2022/05/23 12:54:37;;;;;;;;;;;;;;;27.89;41.00391;99935.46;;;;-80
2022/05/23 13:00:28;;;;;;;;;;;;;;;28.09;40.88184;99929.53;;;;-82
2022/05/23 13:05:24;;;;;;;;;;;;;;;28.2;40.85645;99926.58;;;;-80
2022/05/23 13:10:24;;;;;;;;;;;;;;;28.18;41.01758;99920.47;;;;-82
2022/05/23 13:14:53;;;;;;;;;;;;;;;28.06;40.86816;99913.73;;;;-82
2022/05/23 13:15:14;;;;;;;6.2;3.7;;;;;;;;;;;;;-82
2022/05/23 13:32:11;;;;;;;;;;;;;;;27.3;41.71777;99924.89;;;;-81
2022/05/23 13:36:58;;;;;;;;;;;;;;;27.02;42.13379;99917.73;;;;-80
2022/05/23 13:41:50;;;;;;;;;;;;;;;26.77;42.5166;99916.53;;;;-81
2022/05/23 13:45:15;;;;;;;9.4;4.7;;;;;;;;;;;;;-80
2022/05/23 13:46:12;;;;;;;;;;;;;;;26.55;42.82031;99914.22;;;;-81
2022/05/23 13:51:08;;;;;;;;;;;;;;;26.27;43.1416;99918.66;;;;-81
2022/05/23 13:56:13;;;;;;;;;;;;;;;26;43.70605;99933.53;;;;-79
2022/05/23 14:02:24;;;;;;;;;;;;;;;25.69;44.45215;99935.94;;;;-81
2022/05/23 14:07:25;;;;;;;;;;;;;;;25.47;44.80176;99925.11;;;;-80
2022/05/23 14:12:26;;;;;;;;;;;;;;;25.23;45.32031;99921.33;;;;-81
2022/05/23 14:15:10;;;;;;;7.8;5.4;;;;;;;;;;;;;-80
2022/05/23 14:21:52;;;;;;;;;;;;;;;24.64;46.29883;99914.88;;;;-84
2022/05/23 14:26:59;;;;;;;;;;;;;;;24.31;46.51855;99903.77;;;;-82
2022/05/23 14:32:01;;;;;;;;;;;;;;;23.99;47.06152;99885.69;;;;-81
2022/05/23 14:36:54;;;;;;;;;;;;;;;23.66;47.26953;99864.06;;;;-81
2022/05/23 14:45:31;;;;;;;12.3;7.4;;;;;;;;;;;;;-80
2022/05/23 14:47:27;;;;;;;;;;;;;;;23.12;47.95996;99848.02;;;;-81
2022/05/23 14:52:15;;;;;;;;;;;;;;;22.92;48.24805;99834.09;;;;-81
2022/05/23 14:57:09;;;;;;;;;;;;;;;22.7;48.56934;99835.38;;;;-81
2022/05/23 15:02:35;;;;;;;;;;;;;;;22.48;48.56934;99812.96;;;;-81
2022/05/23 15:07:35;;;;;;;;;;;;;;;22.28;48.78711;99800.77;;;;-83
2022/05/23 15:12:54;;;;;;;;;;;;;;;22.1;49.46777;99804.05;;;;-81
2022/05/23 15:15:15;;;;;;;14.4;10;;;;;;;;;;;;;-81
2022/05/23 15:17:33;;;;;;;;;;;;;;;21.94;49.77051;99802.2;;;;-81
2022/05/23 15:22:41;;;;;;;;;;;;;;;21.78;49.75293;99802.98;;;;-79
2022/05/23 15:27:31;;;;;;;;;;;;;;;21.59;50.13281;99807.7;;;;-82
2022/05/23 15:32:29;;;;;;;;;;;;;;;21.41;50.44434;99818.91;;;;-79
2022/05/23 15:37:33;;;;;;;;;;;;;;;21.2;50.67188;99812.55;;;;-82
2022/05/23 15:42:42;;;;;;;;;;;;;;;21.01;50.82031;99808.73;;;;-81
2022/05/23 15:45:17;;;;;;;20.2;13;;;;;;;;;;;;;-80
2022/05/23 15:47:41;;;;;;;;;;;;;;;20.84;51.09961;99814.53;;;;-81
2022/05/23 15:52:31;;;;;;;;;;;;;;;20.63;51.33789;99814.13;;;;-82
2022/05/23 16:02:39;;;;;;;;;;;;;;;20.19;52.73633;99816.35;;;;-83
2022/05/23 16:07:29;;;;;;;;;;;;;;;19.9;53.38574;99828.35;;;;-80
2022/05/23 16:12:31;;;;;;;;;;;;;;;19.59;54.25879;99837.33;;;;-82
2022/05/23 16:15:19;;;;;;;20.6;12.6;;;;;;;;;;;;;-82
2022/05/23 16:17:28;;;;;;;;;;;;;;;19.3;54.71289;99837.91;;;;-82
2022/05/23 16:22:36;;;;;;;;;;;;;;;18.99;55.52734;99829.4;;;;-82
2022/05/23 16:27:31;;;;;;;;;;;;;;;18.65;56.2002;99815.73;;;;-82
2022/05/23 16:37:28;;;;;;;;;;;;;;;18.12;57.52637;99826.89;;;;-81
2022/05/23 16:42:32;;;;;;;;;;;;;;;17.92;57.5459;99845.75;;;;-82
2022/05/23 16:45:21;;;;;;;7.2;3.8;;;;;;;;;;;;;-82
2022/05/23 16:47:29;;;;;;;;;;;;;;;17.74;58.20215;99844.4;;;;-81
2022/05/23 16:52:29;;;;;;;;;;;;;;;17.57;58.6543;99844.23;;;;-81
2022/05/23 16:57:28;;;;;;;;;;;;;;;17.38;59.42188;99843.76;;;;-84
2022/05/23 17:02:35;;;;;;;;;;;;;;;17.22;60.31738;99841.55;;;;-83
2022/05/23 17:07:29;;;;;;;;;;;;;;;17.04;60.46191;99833.17;;;;-83
2022/05/23 17:12:29;;;;;;;;;;;;;;;16.93;60.94336;99836.92;;;;-81
2022/05/23 17:15:25;;;;;;;5;2.8;;;;;;;;;;;;;-81
2022/05/23 17:17:29;;;;;;;;;;;;;;;16.8;61.29688;99839.77;;;;-82
2022/05/23 17:22:28;;;;;;;;;;;;;;;16.69;61.40625;99847.92;;;;-81
2022/05/23 17:27:28;;;;;;;;;;;;;;;16.58;61.43652;99858.73;;;;-78
2022/05/23 17:32:29;;;;;;;;;;;;;;;16.49;61.53809;99869.91;;;;-82
2022/05/23 17:37:35;;;;;;;;;;;;;;;16.39;61.69141;99872.06;;;;-82
2022/05/23 17:42:31;;;;;;;;;;;;;;;16.3;61.79199;99877.45;;;;-83
2022/05/23 17:45:31;;;;;;;3.4;1.8;;;;;;;;;;;;;-82
2022/05/23 17:47:36;;;;;;;;;;;;;;;16.21;61.97168;99881.86;;;;-82
2022/05/23 17:52:50;;;;;;;;;;;;;;;16.13;61.95898;99876.34;;;;-82
2022/05/23 17:58:06;;;;;;;;;;;;;;;16.06;62.08496;99880.53;;;;-85
2022/05/23 18:08:04;;;;;;;;;;;;;;;15.95;61.95703;99882.13;;;;-83
2022/05/23 18:22:47;;;;;;;;;;;;;;;15.79;61.88965;99889.81;;;;-83
2022/05/23 18:27:41;;;;;;;;;;;;;;;15.74;61.97266;99885.02;;;;-83
2022/05/23 18:32:44;;;;;;;;;;;;;;;15.68;61.70605;99882.73;;;;-83
2022/05/23 18:37:45;;;;;;;;;;;;;;;15.65;61.83496;99875.64;;;;-83
2022/05/23 18:42:55;;;;;;;;;;;;;;;15.59;61.72656;99881.75;;;;-83
2022/05/23 18:45:42;;;;;;;5.2;2.3;;;;;;;;;;;;;-85
2022/05/23 18:52:53;;;;;;;;;;;;;;;15.53;61.67383;99877.64;;;;-85
2022/05/23 18:57:54;;;;;;;;;;;;;;;15.5;61.78125;99883.51;;;;-85
2022/05/23 19:02:55;;;;;;;;;;;;;;;15.46;61.64063;99883.73;;;;-84
2022/05/23 19:12:53;;;;;;;;;;;;;;;15.39;61.74316;99901.61;;;;-83
2022/05/23 19:15:45;;;;;;;4.6;2.2;;;;;;;;;;;;;-83
2022/05/23 19:18:01;;;;;;;;;;;;;;;15.34;61.66895;99895.31;;;;-84
2022/05/23 19:22:58;;;;;;;;;;;;;;;15.31;61.66602;99918.14;;;;-84
2022/05/23 19:27:57;;;;;;;;;;;;;;;15.29;61.77441;99929.98;;;;-82
2022/05/23 19:32:55;;;;;;;;;;;;;;;15.24;62.12793;99934.53;;;;-81
2022/05/23 19:42:45;;;;;;;;;;;;;;;15.18;62.32227;99968.66;;;;-81
2022/05/23 19:45:50;;;;;;;4.9;2.2;;;;;;;;;;;;;-80
2022/05/23 19:48:06;;;;;;;;;;;;;;;15.14;62.38379;99971.01;;;;-81
2022/05/23 19:52:53;;;;;;;;;;;;;;;;;;;;;
2022/05/23 20:08:02;;;;;;;;;;;;;;;15.04;62.65039;99998.8;;;;-82
2022/05/23 20:12:54;;;;;;;;;;;;;;;15.04;62.48145;100008.1;;;;-80
2022/05/23 20:25:32;;;;;;;;;;;;;;;14.96;63.09961;100029.9;;;;-82
2022/05/23 20:30:32;;;;;;;;;;;;;;;14.91;63.2832;100021.1;;;;-83
2022/05/23 20:35:30;;;;;;;;;;;;;;;14.89;63.1123;100026.9;;;;-82
2022/05/23 20:40:34;;;;;;;;;;;;;;;14.86;63.28711;100033.7;;;;-82
2022/05/23 20:45:35;;;;;;;;;;;;;;;14.81;63.79688;100037.1;;;;-82
2022/05/23 20:45:46;;;;;;;4.7;2.7;;;;;;;;;;;;;-82
2022/05/23 20:50:32;;;;;;;;;;;;;;;14.77;64.28613;100041.7;;;;-82
2022/05/23 20:55:30;;;;;;;;;;;;;;;14.75;64.6748;100041.2;;;;-81
2022/05/23 21:00:32;;;;;;;;;;;;;;;14.7;64.94824;100046;;;;-82
2022/05/23 21:05:32;;;;;;;;;;;;;;;14.68;65.04688;100044.9;;;;-82
2022/05/23 21:10:32;;;;;;;;;;;;;;;14.65;65.5459;100039.9;;;;-81
2022/05/23 21:15:30;;;;;;;;;;;;;;;14.6;66.13379;100044.9;;;;-82
2022/05/23 21:15:40;;;;;;;5.3;3.1;;;;;;;;;;;;;-82
2022/05/23 21:20:30;;;;;;;;;;;;;;;14.56;66.38672;100048.3;;;;-80
2022/05/23 21:25:35;;;;;;;;;;;;;;;14.54;66.87598;100044.4;;;;-80
2022/05/23 21:30:33;;;;;;;;;;;;;;;14.54;66.47168;100047.7;;;;-81
2022/05/23 21:35:31;;;;;;;;;;;;;;;14.52;66.53613;100051;;;;-81
2022/05/23 21:50:31;;;;;;;;;;;;;;;14.44;67.4209;100054.1;;;;-81
2022/05/23 21:55:31;;;;;;;;;;;;;;;14.41;67.8877;100056.5;;;;-80
2022/05/23 22:00:32;;;;;;;;;;;;;;;14.39;67.97363;100064.2;;;;-80
2022/05/23 22:05:30;;;;;;;;;;;;;;;14.36;68.14746;100062.6;;;;-81
2022/05/23 22:10:32;;;;;;;;;;;;;;;14.36;68.14746;100063.6;;;;-83
2022/05/23 22:15:32;;;;;;;;;;;;;;;14.37;67.84766;100063.2;;;;-82
2022/05/23 22:15:43;;;;;;;9.5;4.8;;;;;;;;;;;;;-82
2022/05/23 22:20:44;;;;;;;;;;;;;;;14.37;67.67871;100065.1;;;;-83
2022/05/23 22:25:31;;;;;;;;;;;;;;;14.33;67.66309;100062.3;;;;-81
2022/05/23 22:30:30;;;;;;;;;;;;;;;14.32;67.72754;100062.4;;;;-81
2022/05/23 22:35:30;;;;;;;;;;;;;;;14.29;67.99219;100061.7;;;;-81
2022/05/23 22:40:31;;;;;;;;;;;;;;;14.24;67.99512;100071.4;;;;-81
2022/05/23 22:45:32;;;;;;;;;;;;;;;14.19;68.17871;100077.7;;;;-82
2022/05/23 22:45:47;;;;;;;5.3;3;;;;;;;;;;;;;-81
2022/05/23 22:50:36;;;;;;;;;;;;;;;14.16;68.17383;100077.5;;;;-81
2022/05/23 22:55:30;;;;;;;;;;;;;;;14.15;67.92676;100076.8;;;;-81
2022/05/23 23:00:30;;;;;;;;;;;;;;;14.13;67.63086;100081.6;;;;-81
2022/05/23 23:05:31;;;;;;;;;;;;;;;14.14;67.55566;100078.4;;;;-80
2022/05/23 23:10:30;;;;;;;;;;;;;;;14.12;67.37207;100068.5;;;;-82
2022/05/23 23:15:31;;;;;;;;;;;;;;;14.1;67.86035;100061.5;;;;-80
2022/05/23 23:15:46;;;;;;;5.5;3.1;;;;;;;;;;;;;-80
2022/05/23 23:20:30;;;;;;;;;;;;;;;14.11;68.12109;100061.4;;;;-82
2022/05/23 23:25:31;;;;;;;;;;;;;;;14.12;67.96582;100061.5;;;;-82
2022/05/23 23:30:32;;;;;;;;;;;;;;;14.13;68.01172;100047.3;;;;-80
2022/05/23 23:40:31;;;;;;;;;;;;;;;14.12;68.33496;100044.5;;;;-80
2022/05/23 23:45:36;;;;;;;;;;;;;;;14.09;68.82324;100046.6;;;;-80
2022/05/23 23:45:47;;;;;;;8.3;5.1;;;;;;;;;;;;;-81
2022/05/23 23:50:31;;;;;;;;;;;;;;;14.09;68.90137;100046.4;;;;-82
2022/05/23 23:55:30;;;;;;;;;;;;;;;14.09;68.79004;100047.3;;;;-82
